createdAt,value
2023-05-25T00:01:38.984Z,10.13
2023-05-25T00:04:06.292Z,9.18
2023-05-25T00:06:37.572Z,9.90
2023-05-25T00:09:05.043Z,10.00
2023-05-25T00:11:32.095Z,10.57
2023-05-25T00:13:59.689Z,11.73
2023-05-25T00:16:26.755Z,10.07
2023-05-25T00:18:57.802Z,10.05
2023-05-25T00:21:25.957Z,10.05
2023-05-25T00:23:53.083Z,11.00
2023-05-25T00:26:20.223Z,11.20
2023-05-25T00:28:47.347Z,11.35
2023-05-25T00:31:14.529Z,11.13
2023-05-25T00:33:41.741Z,11.57
2023-05-25T00:36:09.441Z,10.63
2023-05-25T00:38:36.919Z,11.32
2023-05-25T00:41:06.391Z,11.23
2023-05-25T00:43:33.573Z,11.30
2023-05-25T00:46:00.996Z,11.43
2023-05-25T00:48:28.339Z,10.45
2023-05-25T00:51:00.262Z,11.77
2023-05-25T00:53:27.465Z,12.07
2023-05-25T00:56:16.261Z,12.63
2023-05-25T00:58:43.709Z,11.95
2023-05-25T01:01:15.513Z,12.82
2023-05-25T01:03:46.050Z,12.05
2023-05-25T01:06:15.550Z,11.60
2023-05-25T01:08:44.800Z,11.48
2023-05-25T01:11:12.695Z,11.05
2023-05-25T01:13:42.184Z,11.48
2023-05-25T01:16:10.015Z,11.95
2023-05-25T01:18:37.988Z,12.15
2023-05-25T01:21:15.156Z,12.38
2023-05-25T01:23:51.917Z,12.48
2023-05-25T01:26:21.156Z,12.70
2023-05-25T01:28:52.715Z,12.20
2023-05-25T01:31:22.996Z,11.80
2023-05-25T01:33:54.212Z,11.85
2023-05-25T01:36:21.788Z,12.45
2023-05-25T01:38:49.467Z,12.50
2023-05-25T01:41:16.587Z,14.68
2023-05-25T01:43:44.811Z,13.20
2023-05-25T01:46:39.093Z,13.63
2023-05-25T01:49:27.083Z,13.23
2023-05-25T01:52:24.320Z,11.77
2023-05-25T01:55:00.227Z,12.32
2023-05-25T01:57:29.539Z,11.43
2023-05-25T02:00:00.546Z,11.40
2023-05-25T02:02:28.177Z,10.82
2023-05-25T02:04:55.910Z,10.40
2023-05-25T02:07:23.794Z,9.88
2023-05-25T02:09:51.460Z,10.90
2023-05-25T02:12:18.661Z,10.10
2023-05-25T02:14:48.716Z,9.70
2023-05-25T02:17:18.095Z,10.25
2023-05-25T02:19:46.090Z,10.02
2023-05-25T02:22:13.210Z,9.35
2023-05-25T02:24:42.049Z,9.48
2023-05-25T02:27:09.415Z,9.75
2023-05-25T02:29:36.757Z,9.18
2023-05-25T02:32:05.221Z,9.73
2023-05-25T02:34:32.399Z,9.98
2023-05-25T02:37:01.156Z,9.85
2023-05-25T02:39:29.183Z,9.73
2023-05-25T02:41:58.464Z,9.45
2023-05-25T02:44:26.621Z,9.88
2023-05-25T02:46:54.217Z,10.45
2023-05-25T02:49:21.325Z,9.93
2023-05-25T02:51:49.088Z,10.25
2023-05-25T02:54:17.673Z,10.43
2023-05-25T02:56:46.092Z,9.68
2023-05-25T02:59:16.183Z,10.02
2023-05-25T03:01:43.949Z,8.73
2023-05-25T03:04:11.156Z,9.90
2023-05-25T03:06:39.664Z,9.60
2023-05-25T03:11:45.794Z,9.80
2023-05-25T03:14:16.422Z,9.43
2023-05-25T03:16:52.177Z,9.30
2023-05-25T03:19:22.283Z,9.13
2023-05-25T03:21:49.335Z,9.40
2023-05-25T03:24:19.587Z,9.85
2023-05-25T03:26:46.733Z,9.60
2023-05-25T03:29:14.995Z,9.70
2023-05-25T03:31:42.895Z,10.73
2023-05-25T03:34:10.471Z,10.30
2023-05-25T03:36:39.323Z,9.85
2023-05-25T03:39:07.825Z,10.55
2023-05-25T03:41:34.919Z,9.32
2023-05-25T03:44:02.254Z,9.38
2023-05-25T03:46:29.873Z,10.15
2023-05-25T03:48:58.173Z,10.02
2023-05-25T03:51:25.223Z,9.63
2023-05-25T03:53:52.855Z,9.48
2023-05-25T03:56:19.942Z,9.45
2023-05-25T03:58:47.515Z,9.38
2023-05-25T04:01:15.203Z,9.05
2023-05-25T04:03:42.833Z,10.23
2023-05-25T04:06:09.989Z,8.60
2023-05-25T04:08:37.549Z,9.27
2023-05-25T04:11:05.353Z,8.93
2023-05-25T04:13:36.157Z,8.68
2023-05-25T04:16:04.698Z,9.50
2023-05-25T04:18:34.327Z,9.63
2023-05-25T04:21:01.777Z,9.40
2023-05-25T04:23:29.095Z,9.07
2023-05-25T04:25:56.510Z,9.13
2023-05-25T04:28:24.468Z,9.23
2023-05-25T04:30:57.979Z,9.50
2023-05-25T04:33:39.188Z,8.48
2023-05-25T04:36:19.778Z,9.23
2023-05-25T04:38:49.143Z,8.85
2023-05-25T04:41:16.229Z,9.23
2023-05-25T04:44:05.815Z,8.50
2023-05-25T04:46:37.827Z,9.55
2023-05-25T04:49:14.653Z,9.85
2023-05-25T04:51:41.992Z,9.45
2023-05-25T04:54:09.385Z,10.25
2023-05-25T04:56:37.544Z,10.43
2023-05-25T04:59:04.773Z,11.00
2023-05-25T05:01:34.916Z,11.27
2023-05-25T05:04:03.637Z,9.88
2023-05-25T05:06:32.559Z,9.63
2023-05-25T05:08:59.944Z,10.25
2023-05-25T05:11:28.814Z,10.65
2023-05-25T05:13:57.211Z,10.55
2023-05-25T05:16:24.813Z,11.60
2023-05-25T05:18:51.976Z,9.98
2023-05-25T05:21:21.326Z,11.00
2023-05-25T05:23:50.188Z,10.95
2023-05-25T05:26:18.094Z,10.75
2023-05-25T05:28:45.316Z,11.00
2023-05-25T05:31:13.198Z,10.32
2023-05-25T05:33:41.771Z,10.95
2023-05-25T05:36:09.402Z,10.20
2023-05-25T05:38:39.921Z,9.95
2023-05-25T05:41:13.728Z,10.88
2023-05-25T05:43:44.223Z,11.20
2023-05-25T05:46:11.385Z,9.80
2023-05-25T05:48:40.337Z,10.80
2023-05-25T05:51:07.561Z,18.88
2023-05-25T05:53:37.759Z,11.73
2023-05-25T05:56:05.334Z,11.73
2023-05-25T05:58:32.780Z,11.10
2023-05-25T06:01:00.590Z,11.40
2023-05-25T06:03:31.218Z,11.27
2023-05-25T06:05:58.507Z,12.23
2023-05-25T06:08:26.715Z,10.75
2023-05-25T06:10:53.840Z,10.73
2023-05-25T06:13:21.163Z,10.15
2023-05-25T06:15:48.482Z,12.98
2023-05-25T06:18:21.244Z,12.25
2023-05-25T06:20:48.821Z,12.18
2023-05-25T06:23:16.178Z,12.10
2023-05-25T06:25:43.771Z,10.95
2023-05-25T06:28:11.228Z,11.30
2023-05-25T06:30:38.380Z,10.30
2023-05-25T06:33:06.625Z,11.38
2023-05-25T06:35:33.784Z,10.50
2023-05-25T06:38:01.136Z,11.15
2023-05-25T06:40:28.281Z,11.45
2023-05-25T06:42:56.060Z,11.25
2023-05-25T06:45:38.268Z,11.55
2023-05-25T06:48:05.895Z,10.48
2023-05-25T06:50:33.116Z,11.60
2023-05-25T06:53:00.640Z,12.50
2023-05-25T06:55:27.880Z,11.43
2023-05-25T06:57:54.955Z,11.48
2023-05-25T07:00:22.128Z,12.02
2023-05-25T07:02:49.372Z,11.63
2023-05-25T07:05:16.919Z,11.45
2023-05-25T07:07:44.178Z,12.13
2023-05-25T07:10:11.511Z,11.65
2023-05-25T07:12:38.665Z,11.48
2023-05-25T07:15:06.815Z,11.10
2023-05-25T07:17:34.218Z,10.35
2023-05-25T07:20:01.435Z,11.30
2023-05-25T07:22:28.627Z,10.95
2023-05-25T07:24:55.808Z,10.75
2023-05-25T07:27:22.952Z,10.57
2023-05-25T07:29:50.079Z,10.35
2023-05-25T07:32:17.173Z,11.65
2023-05-25T07:34:44.384Z,10.35
2023-05-25T07:37:11.549Z,9.57
2023-05-25T07:39:40.843Z,9.57
2023-05-25T07:42:08.063Z,10.20
2023-05-25T07:44:35.587Z,9.93
2023-05-25T07:47:02.747Z,10.52
2023-05-25T07:49:29.963Z,10.95
2023-05-25T07:51:57.128Z,10.18
2023-05-25T07:54:24.374Z,10.35
2023-05-25T07:56:51.461Z,10.30
2023-05-25T07:59:18.577Z,10.05
2023-05-25T08:01:45.692Z,10.10
2023-05-25T08:04:13.260Z,10.23
2023-05-25T08:06:40.521Z,11.05
2023-05-25T08:09:08.337Z,10.63
2023-05-25T08:11:35.458Z,10.70
2023-05-25T08:14:02.578Z,10.52
2023-05-25T08:16:29.716Z,10.93
2023-05-25T08:18:57.367Z,10.95
2023-05-25T08:21:24.455Z,10.45
2023-05-25T08:23:51.962Z,10.60
2023-05-25T08:26:34.817Z,10.00
2023-05-25T08:29:06.706Z,9.95
2023-05-25T08:31:34.064Z,10.75
2023-05-25T08:34:02.048Z,10.52
2023-05-25T08:36:29.300Z,10.05
2023-05-25T08:38:56.578Z,10.10
2023-05-25T08:41:23.720Z,11.80
2023-05-25T08:43:50.914Z,10.60
2023-05-25T08:46:31.544Z,9.68
2023-05-25T08:49:15.204Z,10.07
2023-05-25T08:51:53.484Z,8.73
2023-05-25T08:54:23.809Z,11.07
2023-05-25T08:56:53.930Z,10.10
2023-05-25T08:59:27.010Z,9.90
2023-05-25T09:01:59.530Z,10.68
2023-05-25T09:04:26.998Z,10.82
2023-05-25T09:07:02.063Z,10.48
2023-05-25T09:09:38.284Z,10.10
2023-05-25T09:12:06.533Z,10.35
2023-05-25T09:14:35.345Z,9.25
2023-05-25T09:17:02.524Z,8.95
2023-05-25T09:19:29.724Z,9.43
2023-05-25T09:22:13.424Z,11.13
2023-05-25T09:24:44.726Z,9.65
2023-05-25T09:27:13.241Z,8.63
2023-05-25T09:29:40.424Z,8.88
2023-05-25T09:32:08.238Z,9.63
2023-05-25T09:34:35.745Z,8.43
2023-05-25T09:37:14.085Z,7.82
2023-05-25T09:39:45.030Z,12.40
2023-05-25T09:42:12.777Z,8.07
2023-05-25T09:44:40.665Z,7.53
2023-05-25T09:47:07.883Z,7.85
2023-05-25T09:49:35.832Z,9.00
2023-05-25T09:52:03.094Z,13.00
2023-05-25T09:54:30.205Z,9.18
2023-05-25T09:56:57.408Z,10.10
2023-05-25T09:59:24.553Z,11.63
2023-05-25T10:01:56.137Z,12.00
2023-05-25T10:04:23.631Z,9.38
2023-05-25T10:06:52.073Z,12.02
2023-05-25T10:09:20.611Z,10.65
2023-05-25T10:11:48.682Z,8.55
2023-05-25T10:14:19.933Z,7.80
2023-05-25T10:16:51.055Z,9.35
2023-05-25T10:19:41.851Z,8.73
2023-05-25T10:22:31.392Z,8.50
2023-05-25T10:25:09.276Z,8.32
2023-05-25T10:27:43.661Z,9.07
2023-05-25T10:30:11.917Z,12.68
2023-05-25T10:32:39.413Z,13.23
2023-05-25T10:35:08.875Z,11.60
2023-05-25T10:37:36.321Z,13.65
2023-05-25T10:40:04.923Z,9.52
2023-05-25T10:42:32.712Z,58.28
2023-05-25T10:45:00.296Z,26.60
2023-05-25T10:47:27.716Z,31.48
2023-05-25T10:49:59.755Z,24.33
2023-05-25T10:52:29.178Z,17.17
2023-05-25T10:55:02.262Z,13.57
2023-05-25T10:57:29.842Z,12.90
2023-05-25T11:00:07.398Z,13.82
2023-05-25T11:02:55.690Z,16.77
2023-05-25T11:05:26.826Z,15.40
2023-05-25T11:07:58.218Z,9.50
2023-05-25T11:10:54.285Z,9.30
2023-05-25T11:13:40.957Z,14.05
2023-05-25T11:16:19.130Z,8.98
2023-05-25T11:18:51.959Z,8.10
2023-05-25T11:21:41.198Z,9.73
2023-05-25T11:24:16.615Z,7.53
2023-05-25T11:26:56.271Z,9.60
2023-05-25T11:29:25.751Z,6.20
2023-05-25T11:31:57.040Z,6.47
2023-05-25T11:34:26.420Z,8.05
2023-05-25T11:36:58.244Z,6.55
2023-05-25T11:39:25.761Z,7.22
2023-05-25T11:41:59.262Z,6.90
2023-05-25T11:44:28.805Z,7.50
2023-05-25T11:47:02.157Z,5.78
2023-05-25T11:49:32.172Z,8.68
2023-05-25T11:51:59.327Z,6.95
2023-05-25T11:54:29.273Z,6.32
2023-05-25T11:57:00.878Z,6.90
2023-05-25T11:59:32.772Z,7.57
2023-05-25T12:02:04.406Z,8.02
2023-05-25T12:04:33.926Z,7.53
2023-05-25T12:07:02.912Z,8.68
2023-05-25T12:09:30.517Z,8.50
2023-05-25T12:11:58.498Z,8.88
2023-05-25T12:14:26.148Z,7.10
2023-05-25T12:16:53.551Z,7.18
2023-05-25T12:19:22.146Z,7.10
2023-05-25T12:21:51.760Z,7.85
2023-05-25T12:24:19.669Z,6.57
2023-05-25T12:27:02.428Z,7.20
2023-05-25T12:29:30.065Z,8.18
2023-05-25T12:32:05.059Z,7.25
2023-05-25T12:34:32.442Z,6.63
2023-05-25T12:36:59.522Z,8.63
2023-05-25T12:39:29.792Z,6.40
2023-05-25T12:42:04.918Z,8.93
2023-05-25T12:44:37.866Z,6.60
2023-05-25T12:47:15.943Z,9.15
2023-05-25T12:49:48.728Z,6.50
2023-05-25T12:52:37.132Z,8.98
2023-05-25T12:55:30.834Z,7.63
2023-05-25T12:58:00.160Z,6.38
2023-05-25T13:00:39.391Z,7.13
2023-05-25T13:03:08.233Z,6.70
2023-05-25T13:05:40.269Z,7.88
2023-05-25T13:08:07.716Z,9.68
2023-05-25T13:10:38.222Z,8.48
2023-05-25T13:13:06.028Z,11.75
2023-05-25T13:15:33.188Z,10.27
2023-05-25T13:18:00.604Z,11.73
2023-05-25T13:20:30.679Z,7.78
2023-05-25T13:22:58.771Z,6.25
2023-05-25T13:25:28.155Z,6.30
2023-05-25T13:28:00.301Z,9.25
2023-05-25T13:30:27.678Z,6.80
2023-05-25T13:32:54.808Z,7.15
2023-05-25T13:35:42.451Z,6.00
2023-05-25T13:38:10.932Z,5.80
2023-05-25T13:40:38.099Z,7.15
2023-05-25T13:43:05.859Z,6.97
2023-05-25T13:45:33.120Z,8.57
2023-05-25T13:48:01.085Z,6.47
2023-05-25T13:50:28.351Z,6.80
2023-05-25T13:52:55.868Z,9.05
2023-05-25T13:55:23.929Z,6.22
2023-05-25T13:57:52.491Z,6.70
2023-05-25T14:00:19.868Z,7.38
2023-05-25T14:02:47.213Z,5.78
2023-05-25T14:05:14.325Z,7.00
2023-05-25T14:07:41.586Z,7.28
2023-05-25T14:10:09.989Z,8.18
2023-05-25T14:12:37.533Z,7.88
2023-05-25T14:15:05.869Z,7.53
2023-05-25T14:17:33.363Z,6.10
2023-05-25T14:20:04.258Z,7.60
2023-05-25T14:22:32.612Z,6.75
2023-05-25T14:25:00.321Z,5.80
2023-05-25T14:27:27.629Z,6.93
2023-05-25T14:29:54.695Z,8.40
2023-05-25T14:32:22.453Z,6.03
2023-05-25T14:34:49.541Z,6.60
2023-05-25T14:37:16.876Z,5.88
2023-05-25T14:39:44.344Z,6.57
2023-05-25T14:42:11.692Z,8.07
2023-05-25T14:44:38.832Z,6.45
2023-05-25T14:47:06.924Z,7.78
2023-05-25T14:49:34.027Z,5.22
2023-05-25T14:52:01.385Z,5.18
2023-05-25T14:54:28.713Z,5.80
2023-05-25T14:56:56.106Z,5.97
2023-05-25T14:59:23.230Z,6.57
2023-05-25T15:01:51.028Z,5.95
2023-05-25T15:04:18.172Z,6.63
2023-05-25T15:06:45.672Z,7.20
2023-05-25T15:09:13.983Z,4.95
2023-05-25T15:11:41.277Z,7.63
2023-05-25T15:14:08.394Z,4.28
2023-05-25T15:16:36.407Z,5.50
2023-05-25T15:19:03.595Z,4.18
2023-05-25T15:21:30.974Z,3.85
2023-05-25T15:23:58.208Z,3.83
2023-05-25T15:26:26.713Z,3.85
2023-05-25T15:28:54.161Z,4.30
2023-05-25T15:31:21.520Z,3.55
2023-05-25T15:33:58.297Z,4.95
2023-05-25T15:36:27.738Z,4.63
2023-05-25T15:38:54.817Z,5.50
2023-05-25T15:41:23.604Z,4.57
2023-05-25T15:43:54.895Z,3.90
2023-05-25T15:46:22.363Z,3.88
2023-05-25T15:48:49.611Z,3.20
2023-05-25T15:51:17.281Z,3.40
2023-05-25T15:53:44.494Z,3.97
2023-05-25T15:56:11.881Z,4.78
2023-05-25T15:58:39.416Z,3.28
2023-05-25T16:01:07.004Z,3.70
2023-05-25T16:03:34.206Z,4.38
2023-05-25T16:06:02.754Z,4.60
2023-05-25T16:08:29.807Z,4.50
2023-05-25T16:10:57.298Z,5.55
2023-05-25T16:13:24.624Z,4.50
2023-05-25T16:15:52.097Z,5.50
2023-05-25T16:18:19.306Z,4.47
2023-05-25T16:20:47.626Z,5.10
2023-05-25T16:23:16.919Z,4.88
2023-05-25T16:25:44.388Z,5.25
2023-05-25T16:28:11.698Z,5.10
2023-05-25T16:30:39.495Z,6.10
2023-05-25T16:33:06.708Z,5.63
2023-05-25T16:35:34.254Z,5.97
2023-05-25T16:38:01.525Z,6.90
2023-05-25T16:40:28.830Z,5.30
2023-05-25T16:42:56.072Z,6.80
2023-05-25T16:45:23.844Z,6.90
2023-05-25T16:47:51.206Z,5.60
2023-05-25T16:50:18.901Z,5.95
2023-05-25T16:52:46.946Z,5.45
2023-05-25T16:55:16.601Z,5.50
2023-05-25T16:57:44.128Z,6.22
2023-05-25T17:00:12.150Z,5.72
2023-05-25T17:02:42.411Z,19.83
2023-05-25T17:05:10.535Z,12.73
2023-05-25T17:07:38.162Z,10.35
2023-05-25T17:10:07.263Z,7.53
2023-05-25T17:12:34.807Z,6.85
2023-05-25T17:15:02.468Z,6.80
2023-05-25T17:17:29.680Z,7.13
2023-05-25T17:19:57.481Z,7.75
2023-05-25T17:22:24.586Z,6.90
2023-05-25T17:24:52.132Z,7.47
2023-05-25T17:27:19.245Z,7.25
2023-05-25T17:29:49.182Z,6.93
2023-05-25T17:32:16.656Z,6.35
2023-05-25T17:34:44.235Z,6.47
2023-05-25T17:37:11.687Z,6.70
2023-05-25T17:39:38.910Z,6.68
2023-05-25T17:42:06.983Z,8.27
2023-05-25T17:44:34.180Z,7.13
2023-05-25T17:47:01.429Z,7.05
2023-05-25T17:49:28.536Z,8.15
2023-05-25T17:51:55.973Z,7.68
2023-05-25T17:54:26.057Z,7.53
2023-05-25T17:56:53.816Z,7.88
2023-05-25T17:59:21.619Z,8.02
2023-05-25T18:01:48.741Z,9.07
2023-05-25T18:04:16.547Z,9.18
2023-05-25T18:06:44.092Z,8.15
2023-05-25T18:09:11.497Z,8.07
2023-05-25T18:11:38.544Z,8.68
2023-05-25T18:14:06.160Z,9.00
2023-05-25T18:16:33.349Z,9.05
2023-05-25T18:19:01.172Z,8.38
2023-05-25T18:21:28.260Z,9.13
2023-05-25T18:23:55.693Z,8.70
2023-05-25T18:26:23.138Z,8.52
2023-05-25T18:28:50.650Z,7.50
2023-05-25T18:31:17.734Z,8.23
2023-05-25T18:33:45.453Z,13.35
2023-05-25T18:36:12.620Z,8.10
2023-05-25T18:38:40.436Z,8.60
2023-05-25T18:41:07.516Z,9.27
2023-05-25T18:43:34.849Z,8.77
2023-05-25T18:46:02.157Z,9.70
2023-05-25T18:48:30.106Z,9.98
2023-05-25T18:50:57.184Z,8.98
2023-05-25T18:53:24.888Z,7.05
2023-05-25T18:55:52.350Z,7.03
2023-05-25T18:58:19.842Z,8.30
2023-05-25T19:00:46.985Z,6.80
2023-05-25T19:03:14.761Z,6.50
2023-05-25T19:05:41.938Z,5.68
2023-05-25T19:08:09.567Z,5.78
2023-05-25T19:10:37.029Z,6.25
2023-05-25T19:13:04.478Z,7.05
2023-05-25T19:15:31.594Z,5.80
2023-05-25T19:17:59.431Z,6.38
2023-05-25T19:20:28.346Z,6.18
2023-05-25T19:22:56.112Z,6.43
2023-05-25T19:25:23.381Z,5.00
2023-05-25T19:27:50.804Z,5.03
2023-05-25T19:30:17.854Z,4.88
2023-05-25T19:32:48.592Z,4.72
2023-05-25T19:35:16.431Z,5.43
2023-05-25T19:37:43.606Z,4.90
2023-05-25T19:40:12.376Z,5.07
2023-05-25T19:42:40.037Z,4.53
2023-05-25T19:45:07.805Z,4.57
2023-05-25T19:47:35.034Z,5.43
2023-05-25T19:50:02.717Z,4.43
2023-05-25T19:52:29.976Z,4.35
2023-05-25T19:54:57.063Z,4.80
2023-05-25T19:57:24.340Z,4.90
2023-05-25T19:59:51.490Z,5.68
2023-05-25T20:02:18.811Z,5.50
2023-05-25T20:04:47.191Z,7.13
2023-05-25T20:07:14.399Z,5.68
2023-05-25T20:09:41.839Z,6.18
2023-05-25T20:12:09.278Z,5.03
2023-05-25T20:14:36.635Z,4.85
2023-05-25T20:17:04.192Z,4.65
2023-05-25T20:19:31.373Z,4.93
2023-05-25T20:22:00.488Z,5.18
2023-05-25T20:24:27.877Z,6.15
2023-05-25T20:26:57.056Z,6.40
2023-05-25T20:29:24.207Z,5.75
2023-05-25T20:31:52.255Z,6.55
2023-05-25T20:34:19.444Z,7.88
2023-05-25T20:36:46.877Z,8.50
2023-05-25T20:39:14.221Z,7.63
2023-05-25T20:41:41.352Z,8.50
2023-05-25T20:44:09.240Z,7.80
2023-05-25T20:46:36.742Z,8.98
2023-05-25T20:49:03.979Z,8.45
2023-05-25T20:51:31.678Z,9.57
2023-05-25T20:53:58.972Z,9.15
2023-05-25T20:56:26.937Z,9.80
2023-05-25T20:58:54.926Z,10.82
2023-05-25T21:01:22.096Z,9.70
2023-05-25T21:03:49.603Z,10.38
2023-05-25T21:06:16.818Z,10.45
2023-05-25T21:08:44.006Z,10.90
2023-05-25T21:11:11.139Z,9.00
2023-05-25T21:13:38.267Z,11.50
2023-05-25T21:16:05.541Z,10.88
2023-05-25T21:18:32.720Z,10.75
2023-05-25T21:20:59.804Z,11.85
2023-05-25T21:23:28.939Z,12.07
2023-05-25T21:25:56.178Z,11.93
2023-05-25T21:28:23.881Z,10.88
2023-05-25T21:30:51.085Z,9.98
2023-05-25T21:33:18.164Z,10.10
2023-05-25T21:35:45.595Z,10.73
2023-05-25T21:38:12.980Z,11.07
2023-05-25T21:40:40.119Z,10.68
2023-05-25T21:43:09.329Z,10.40
2023-05-25T21:45:36.417Z,10.05
2023-05-25T21:48:04.667Z,10.65
2023-05-25T21:50:31.952Z,10.25
2023-05-25T21:52:59.083Z,10.32
2023-05-25T21:55:26.201Z,9.68
2023-05-25T21:57:53.273Z,10.52
2023-05-25T22:00:20.604Z,10.30
2023-05-25T22:02:47.903Z,9.85
2023-05-25T22:05:16.135Z,9.70
2023-05-25T22:07:43.269Z,10.20
2023-05-25T22:10:10.643Z,10.60
2023-05-25T22:12:37.798Z,9.80
2023-05-25T22:15:06.324Z,9.90
2023-05-25T22:17:33.484Z,10.35
2023-05-25T22:20:07.964Z,11.70
2023-05-25T22:22:35.878Z,9.93
2023-05-25T22:25:04.196Z,9.85
2023-05-25T22:27:32.905Z,8.88
2023-05-25T22:30:00.031Z,9.43
2023-05-25T22:32:27.744Z,9.57
2023-05-25T22:34:54.864Z,9.30
2023-05-25T22:37:21.965Z,8.30
2023-05-25T22:39:49.752Z,8.88
2023-05-25T22:42:16.868Z,8.75
2023-05-25T22:44:44.009Z,8.82
2023-05-25T22:47:11.090Z,7.70
2023-05-25T22:49:42.806Z,8.77
2023-05-25T22:52:12.112Z,9.00
2023-05-25T22:54:39.680Z,8.65
2023-05-25T22:57:08.286Z,8.38
2023-05-25T22:59:35.651Z,9.27
2023-05-25T23:02:02.809Z,8.45
2023-05-25T23:04:30.062Z,8.57
2023-05-25T23:06:57.095Z,9.15
2023-05-25T23:09:24.230Z,8.07
2023-05-25T23:11:51.391Z,10.77
2023-05-25T23:14:18.448Z,8.80
2023-05-25T23:16:48.899Z,8.95
2023-05-25T23:19:17.091Z,9.57
2023-05-25T23:22:06.670Z,9.35
2023-05-25T23:24:33.721Z,8.63
2023-05-25T23:27:01.137Z,9.15
2023-05-25T23:29:28.449Z,8.77
2023-05-25T23:31:55.823Z,8.65
2023-05-25T23:34:23.201Z,8.88
2023-05-25T23:36:50.262Z,8.70
2023-05-25T23:39:17.526Z,9.02
2023-05-25T23:41:44.551Z,9.55
2023-05-25T23:44:11.707Z,9.50
2023-05-25T23:46:38.910Z,9.88
2023-05-25T23:49:06.212Z,9.60
2023-05-25T23:51:33.519Z,9.30
2023-05-25T23:54:00.951Z,9.63
2023-05-25T23:56:28.519Z,9.30
2023-05-25T23:58:57.142Z,8.85
